PWSweather.com
Personal Weather Stations
Station Observations
WATERF01
WaterfordIE

WaterfordIE

Lat: 52.2412507, Lon: -7.1414691

Elevation: 65

Station Type: Davis Vantage Vue

Latest ConditionsUpdated 1:00:02 PM GMT Monday, Oct 20, 2014
Currently Today's Max Today's Min Today's Average
Temperature 59.4°F15.2°C 59.4°F15.2°C 51.2°F10.7°C 53.3°F11.8°C
Dew Point 53.9°F12.2°C 54.1°F12.3°C 48.9°F9.4°C 50.5°F10.3°C
Winds 6.9 mph WSW11.1 kmh WSW 8.1 mph WSW13.0 kmh WSW - 4.4 mph 7.1 kmh
Wind Gusts 13.8 mph22.2 kmh 13.8 mph22.2 kmh - -
Humidity 82% 93% 82% 90%
Pressure 29.89 in1012.2 mb 29.96 in1014.6 mb 29.89 in1012.2 mb -
Precipitation - 0.02 in0.5 mm - -
Hour Temp Dew Point Humidity Winds Wind Gusts Pressure Precip Precip Rate Daily Precip Total
01:00 PM 59.4°F15.2°C 53.9°F12.2°C 82% 6.9 mph WSW11.1 kmh WSW 13.8 mph22.2 kmh 29.89 in1012.2 mb 0.00 in0.0 mm 0.00 in/hr0.0 mm/hr 0.02 in0.5 mm
12:50 PM 58.9°F14.9°C 54.1°F12.3°C 84% 8.1 mph WSW13.0 kmh WSW 12.7 mph20.4 kmh 29.89 in1012.2 mb 0.00 in0.0 mm 0.00 in/hr0.0 mm/hr 0.02 in0.5 mm
12:40 PM 57.9°F14.4°C 53.4°F11.9°C 85% 4.6 mph WSW7.4 kmh WSW 9.2 mph14.8 kmh 29.90 in1012.5 mb 0.00 in0.0 mm 0.00 in/hr0.0 mm/hr 0.02 in0.5 mm
12:30 PM 57.7°F14.3°C 53.2°F11.8°C 85% 5.8 mph WSW9.3 kmh WSW 8.1 mph13.0 kmh 29.90 in1012.5 mb 0.00 in0.0 mm 0.00 in/hr0.0 mm/hr 0.02 in0.5 mm
12:20 PM 57.8°F14.3°C 53.3°F11.8°C 85% 5.8 mph WNW9.3 kmh WNW 8.1 mph13.0 kmh 29.91 in1012.9 mb 0.00 in0.0 mm 0.00 in/hr0.0 mm/hr 0.02 in0.5 mm
12:10 PM 57.2°F14.0°C 52.7°F11.5°C 85% 3.5 mph W5.6 kmh W 11.5 mph18.5 kmh 29.91 in1012.9 mb 0.00 in0.0 mm 0.00 in/hr0.0 mm/hr 0.02 in0.5 mm
12:00 PM 56.7°F13.7°C 52.6°F11.4°C 86% 1.2 mph W1.9 kmh W 5.8 mph9.3 kmh 29.91 in1012.9 mb 0.00 in0.0 mm 0.00 in/hr0.0 mm/hr 0.02 in0.5 mm
11:50 AM 56.3°F13.5°C 52.2°F11.2°C 86% 8.1 mph WNW13.0 kmh WNW 13.8 mph22.2 kmh 29.92 in1013.2 mb 0.00 in0.0 mm 0.00 in/hr0.0 mm/hr 0.02 in0.5 mm
11:40 AM 56.2°F13.4°C 52.4°F11.3°C 87% 5.8 mph WSW9.3 kmh WSW 8.1 mph13.0 kmh 29.92 in1013.2 mb 0.00 in0.0 mm 0.00 in/hr0.0 mm/hr 0.02 in0.5 mm
11:30 AM 56.1°F13.4°C 52.0°F11.1°C 86% 4.6 mph NW7.4 kmh NW 8.1 mph13.0 kmh 29.93 in1013.5 mb 0.00 in0.0 mm 0.00 in/hr0.0 mm/hr 0.02 in0.5 mm
11:20 AM 56.1°F13.4°C 52.0°F11.1°C 86% 4.6 mph W7.4 kmh W 8.1 mph13.0 kmh 29.93 in1013.5 mb 0.00 in0.0 mm 0.00 in/hr0.0 mm/hr 0.02 in0.5 mm
11:10 AM 56.4°F13.6°C 52.2°F11.2°C 86% 5.8 mph W9.3 kmh W 9.2 mph14.8 kmh 29.93 in1013.5 mb 0.00 in0.0 mm 0.00 in/hr0.0 mm/hr 0.02 in0.5 mm
11:00 AM 56.4°F13.6°C 52.5°F11.4°C 87% 5.8 mph WSW9.3 kmh WSW 9.2 mph14.8 kmh 29.93 in1013.5 mb 0.00 in0.0 mm 0.00 in/hr0.0 mm/hr 0.02 in0.5 mm
10:50 AM 55.1°F12.8°C 51.6°F10.9°C 88% 4.6 mph W7.4 kmh W 8.1 mph13.0 kmh 29.93 in1013.5 mb 0.00 in0.0 mm 0.00 in/hr0.0 mm/hr 0.02 in0.5 mm
10:40 AM 54.7°F12.6°C 50.9°F10.5°C 87% 4.6 mph W7.4 kmh W 8.1 mph13.0 kmh 29.94 in1013.9 mb 0.00 in0.0 mm 0.00 in/hr0.0 mm/hr 0.02 in0.5 mm
10:30 AM 54.7°F12.6°C 51.2°F10.7°C 88% 5.8 mph W9.3 kmh W 8.1 mph13.0 kmh 29.94 in1013.9 mb 0.00 in0.0 mm 0.00 in/hr0.0 mm/hr 0.02 in0.5 mm
10:20 AM 54.7°F12.6°C 50.9°F10.5°C 87% 4.6 mph W7.4 kmh W 5.8 mph9.3 kmh 29.94 in1013.9 mb 0.00 in0.0 mm 0.00 in/hr0.0 mm/hr 0.02 in0.5 mm
10:10 AM 54.6°F12.6°C 50.8°F10.4°C 87% 4.6 mph W7.4 kmh W 5.8 mph9.3 kmh 29.94 in1013.9 mb 0.00 in0.0 mm 0.00 in/hr0.0 mm/hr 0.02 in0.5 mm
10:00 AM 54.5°F12.5°C 51.0°F10.6°C 88% 4.6 mph WNW7.4 kmh WNW 9.2 mph14.8 kmh 29.94 in1013.9 mb 0.00 in0.0 mm 0.00 in/hr0.0 mm/hr 0.02 in0.5 mm
09:50 AM 54.2°F12.3°C 50.8°F10.4°C 88% 5.8 mph WSW9.3 kmh WSW 11.5 mph18.5 kmh 29.94 in1013.9 mb 0.00 in0.0 mm 0.00 in/hr0.0 mm/hr 0.02 in0.5 mm
09:40 AM 54.0°F12.2°C 51.2°F10.7°C 90% 5.8 mph WSW9.3 kmh WSW 11.5 mph18.5 kmh 29.94 in1013.9 mb 0.00 in0.0 mm 0.00 in/hr0.0 mm/hr 0.02 in0.5 mm
09:30 AM 53.6°F12.0°C 50.7°F10.4°C 90% 6.9 mph NW11.1 kmh NW 11.5 mph18.5 kmh 29.94 in1013.9 mb 0.00 in0.0 mm 0.00 in/hr0.0 mm/hr 0.02 in0.5 mm
09:20 AM 53.4°F11.9°C 50.5°F10.3°C 90% 5.8 mph W9.3 kmh W 9.2 mph14.8 kmh 29.94 in1013.9 mb 0.00 in0.0 mm 0.00 in/hr0.0 mm/hr 0.02 in0.5 mm
09:10 AM 53.2°F11.8°C 50.3°F10.2°C 90% 5.8 mph W9.3 kmh W 8.1 mph13.0 kmh 29.94 in1013.9 mb 0.00 in0.0 mm 0.00 in/hr0.0 mm/hr 0.02 in0.5 mm
09:00 AM 53.1°F11.7°C 50.5°F10.3°C 91% 8.1 mph WSW13.0 kmh WSW 12.7 mph20.4 kmh 29.94 in1013.9 mb 0.00 in0.0 mm 0.00 in/hr0.0 mm/hr 0.02 in0.5 mm
08:50 AM 52.9°F11.6°C 50.3°F10.2°C 91% 5.8 mph W9.3 kmh W 9.2 mph14.8 kmh 29.94 in1013.9 mb 0.00 in0.0 mm 0.00 in/hr0.0 mm/hr 0.02 in0.5 mm
08:40 AM 52.7°F11.5°C 50.4°F10.2°C 92% 2.3 mph SSW3.7 kmh SSW 5.8 mph9.3 kmh 29.94 in1013.9 mb 0.00 in0.0 mm 0.00 in/hr0.0 mm/hr 0.02 in0.5 mm
08:30 AM 52.5°F11.4°C 50.3°F10.2°C 92% 3.5 mph W5.6 kmh W 5.8 mph9.3 kmh 29.95 in1014.2 mb 0.00 in0.0 mm 0.00 in/hr0.0 mm/hr 0.02 in0.5 mm
08:20 AM 52.4°F11.3°C 50.1°F10.1°C 92% 3.5 mph WNW5.6 kmh WNW 6.9 mph11.1 kmh 29.95 in1014.2 mb 0.00 in0.0 mm 0.00 in/hr0.0 mm/hr 0.02 in0.5 mm
08:10 AM 52.3°F11.3°C 50.0°F10.0°C 92% 3.5 mph W5.6 kmh W 5.8 mph9.3 kmh 29.94 in1013.9 mb 0.00 in0.0 mm 0.00 in/hr0.0 mm/hr 0.02 in0.5 mm
08:00 AM 52.1°F11.2°C 49.8°F9.9°C 92% 4.6 mph W7.4 kmh W 8.1 mph13.0 kmh 29.95 in1014.2 mb 0.00 in0.0 mm 0.00 in/hr0.0 mm/hr 0.02 in0.5 mm
07:50 AM 52.0°F11.1°C 50.0°F10.0°C 93% 2.3 mph W3.7 kmh W 5.8 mph9.3 kmh 29.95 in1014.2 mb 0.00 in0.0 mm 0.00 in/hr0.0 mm/hr 0.02 in0.5 mm
07:40 AM 52.0°F11.1°C 50.0°F10.0°C 93% 3.5 mph WNW5.6 kmh WNW 5.8 mph9.3 kmh 29.94 in1013.9 mb 0.00 in0.0 mm 0.00 in/hr0.0 mm/hr 0.02 in0.5 mm
07:30 AM 51.9°F11.1°C 49.9°F9.9°C 93% 1.2 mph W1.9 kmh W 4.6 mph7.4 kmh 29.94 in1013.9 mb 0.00 in0.0 mm 0.00 in/hr0.0 mm/hr 0.02 in0.5 mm
07:20 AM 51.9°F11.1°C 49.9°F9.9°C 93% 1.2 mph WNW1.9 kmh WNW 4.6 mph7.4 kmh 29.93 in1013.5 mb 0.00 in0.0 mm 0.00 in/hr0.0 mm/hr 0.02 in0.5 mm
07:10 AM 52.0°F11.1°C 50.0°F10.0°C 93% 3.5 mph W5.6 kmh W 8.1 mph13.0 kmh 29.93 in1013.5 mb 0.00 in0.0 mm 0.00 in/hr0.0 mm/hr 0.02 in0.5 mm
07:00 AM 52.1°F11.2°C 50.1°F10.1°C 93% 3.5 mph WSW5.6 kmh WSW 5.8 mph9.3 kmh 29.93 in1013.5 mb 0.00 in0.0 mm 0.00 in/hr0.0 mm/hr 0.02 in0.5 mm
06:50 AM 52.2°F11.2°C 49.9°F9.9°C 92% 3.5 mph W5.6 kmh W 5.8 mph9.3 kmh 29.93 in1013.5 mb 0.00 in0.0 mm 0.00 in/hr0.0 mm/hr 0.02 in0.5 mm
06:40 AM 52.3°F11.3°C 50.0°F10.0°C 92% 4.6 mph WNW7.4 kmh WNW 6.9 mph11.1 kmh 29.93 in1013.5 mb 0.01 in0.3 mm 0.06 in/hr1.5 mm/hr 0.02 in0.5 mm
06:30 AM 52.5°F11.4°C 49.9°F9.9°C 91% 3.5 mph NW5.6 kmh NW 5.8 mph9.3 kmh 29.93 in1013.5 mb 0.01 in0.3 mm 0.06 in/hr1.5 mm/hr 0.01 in0.3 mm
06:20 AM 52.5°F11.4°C 49.9°F9.9°C 91% 4.6 mph WNW7.4 kmh WNW 8.1 mph13.0 kmh 29.93 in1013.5 mb 0.00 in0.0 mm 0.00 in/hr0.0 mm/hr 0.00 in0.0 mm
06:10 AM 52.4°F11.3°C 49.8°F9.9°C 91% 4.6 mph W7.4 kmh W 8.1 mph13.0 kmh 29.93 in1013.5 mb 0.00 in0.0 mm 0.00 in/hr0.0 mm/hr 0.00 in0.0 mm
06:00 AM 52.5°F11.4°C 49.9°F9.9°C 91% 4.6 mph W7.4 kmh W 8.1 mph13.0 kmh 29.93 in1013.5 mb 0.00 in0.0 mm 0.00 in/hr0.0 mm/hr 0.00 in0.0 mm
05:50 AM 52.5°F11.4°C 49.9°F9.9°C 91% 5.8 mph W9.3 kmh W 11.5 mph18.5 kmh 29.93 in1013.5 mb 0.00 in0.0 mm 0.00 in/hr0.0 mm/hr 0.00 in0.0 mm
05:40 AM 52.5°F11.4°C 49.9°F9.9°C 91% 4.6 mph WSW7.4 kmh WSW 6.9 mph11.1 kmh 29.93 in1013.5 mb 0.00 in0.0 mm 0.00 in/hr0.0 mm/hr 0.00 in0.0 mm
05:30 AM 52.5°F11.4°C 50.0°F10.0°C 91% 4.6 mph WNW7.4 kmh WNW 8.1 mph13.0 kmh 29.93 in1013.5 mb 0.00 in0.0 mm 0.00 in/hr0.0 mm/hr 0.00 in0.0 mm
05:20 AM 52.5°F11.4°C 49.9°F9.9°C 91% 5.8 mph WSW9.3 kmh WSW 9.2 mph14.8 kmh 29.93 in1013.5 mb 0.00 in0.0 mm 0.00 in/hr0.0 mm/hr 0.00 in0.0 mm
05:10 AM 52.6°F11.4°C 50.0°F10.0°C 91% 3.5 mph W5.6 kmh W 5.8 mph9.3 kmh 29.93 in1013.5 mb 0.00 in0.0 mm 0.00 in/hr0.0 mm/hr 0.00 in0.0 mm
05:00 AM 52.6°F11.4°C 50.0°F10.0°C 91% 3.5 mph W5.6 kmh W 5.8 mph9.3 kmh 29.94 in1013.9 mb 0.00 in0.0 mm 0.00 in/hr0.0 mm/hr 0.00 in0.0 mm
04:50 AM 52.6°F11.4°C 50.0°F10.0°C 91% 2.3 mph WNW3.7 kmh WNW 5.8 mph9.3 kmh 29.93 in1013.5 mb 0.00 in0.0 mm 0.00 in/hr0.0 mm/hr 0.00 in0.0 mm
04:40 AM 52.7°F11.5°C 50.2°F10.1°C 91% 5.8 mph W9.3 kmh W 8.1 mph13.0 kmh 29.93 in1013.5 mb 0.00 in0.0 mm 0.00 in/hr0.0 mm/hr 0.00 in0.0 mm
04:30 AM 53.0°F11.7°C 50.1°F10.1°C 90% 3.5 mph WSW5.6 kmh WSW 8.1 mph13.0 kmh 29.93 in1013.5 mb 0.00 in0.0 mm 0.00 in/hr0.0 mm/hr 0.00 in0.0 mm
04:20 AM 53.2°F11.8°C 50.3°F10.2°C 90% 4.6 mph WNW7.4 kmh WNW 6.9 mph11.1 kmh 29.93 in1013.5 mb 0.00 in0.0 mm 0.00 in/hr0.0 mm/hr 0.00 in0.0 mm
04:10 AM 53.0°F11.7°C 50.1°F10.1°C 90% 5.8 mph W9.3 kmh W 8.1 mph13.0 kmh 29.94 in1013.9 mb 0.00 in0.0 mm 0.00 in/hr0.0 mm/hr 0.00 in0.0 mm
04:00 AM 52.9°F11.6°C 50.3°F10.2°C 91% 5.8 mph W9.3 kmh W 8.1 mph13.0 kmh 29.93 in1013.5 mb 0.00 in0.0 mm 0.00 in/hr0.0 mm/hr 0.00 in0.0 mm
03:50 AM 52.9°F11.6°C 50.3°F10.2°C 91% 6.9 mph W11.1 kmh W 11.5 mph18.5 kmh 29.94 in1013.9 mb 0.00 in0.0 mm 0.00 in/hr0.0 mm/hr 0.00 in0.0 mm
03:40 AM 52.6°F11.4°C 50.1°F10.1°C 91% 8.1 mph WNW13.0 kmh WNW 12.7 mph20.4 kmh 29.94 in1013.9 mb 0.00 in0.0 mm 0.00 in/hr0.0 mm/hr 0.00 in0.0 mm
03:30 AM 52.5°F11.4°C 50.2°F10.1°C 92% 5.8 mph WNW9.3 kmh WNW 9.2 mph14.8 kmh 29.94 in1013.9 mb 0.00 in0.0 mm 0.00 in/hr0.0 mm/hr 0.00 in0.0 mm
03:20 AM 52.2°F11.2°C 49.9°F9.9°C 92% 5.8 mph W9.3 kmh W 11.5 mph18.5 kmh 29.94 in1013.9 mb 0.00 in0.0 mm 0.00 in/hr0.0 mm/hr 0.00 in0.0 mm
03:10 AM 52.1°F11.2°C 49.8°F9.9°C 92% 4.6 mph W7.4 kmh W 6.9 mph11.1 kmh 29.94 in1013.9 mb 0.00 in0.0 mm 0.00 in/hr0.0 mm/hr 0.00 in0.0 mm
03:00 AM 51.9°F11.1°C 49.9°F9.9°C 93% 4.6 mph WSW7.4 kmh WSW 5.8 mph9.3 kmh 29.94 in1013.9 mb 0.00 in0.0 mm 0.00 in/hr0.0 mm/hr 0.00 in0.0 mm
02:50 AM 51.6°F10.9°C 49.6°F9.8°C 93% 2.3 mph W3.7 kmh W 5.8 mph9.3 kmh 29.94 in1013.9 mb 0.00 in0.0 mm 0.00 in/hr0.0 mm/hr 0.00 in0.0 mm
02:40 AM 51.4°F10.8°C 49.4°F9.7°C 93% Calm Calm 2.3 mph3.7 kmh 29.94 in1013.9 mb 0.00 in0.0 mm 0.00 in/hr0.0 mm/hr 0.00 in0.0 mm
02:30 AM 51.3°F10.7°C 49.1°F9.5°C 92% 1.2 mph W1.9 kmh W 2.3 mph3.7 kmh 29.95 in1014.2 mb 0.00 in0.0 mm 0.00 in/hr0.0 mm/hr 0.00 in0.0 mm
02:20 AM 51.3°F10.7°C 49.1°F9.5°C 92% 1.2 mph W1.9 kmh W 2.3 mph3.7 kmh 29.95 in1014.2 mb 0.00 in0.0 mm 0.00 in/hr0.0 mm/hr 0.00 in0.0 mm
02:10 AM 51.6°F10.9°C 49.1°F9.5°C 91% 1.2 mph W1.9 kmh W 2.3 mph3.7 kmh 29.95 in1014.2 mb 0.00 in0.0 mm 0.00 in/hr0.0 mm/hr 0.00 in0.0 mm
02:00 AM 51.9°F11.1°C 49.6°F9.8°C 92% 1.2 mph WNW1.9 kmh WNW 2.3 mph3.7 kmh 29.95 in1014.2 mb 0.00 in0.0 mm 0.00 in/hr0.0 mm/hr 0.00 in0.0 mm
01:50 AM 51.7°F10.9°C 49.5°F9.7°C 92% 3.5 mph WSW5.6 kmh WSW 5.8 mph9.3 kmh 29.95 in1014.2 mb 0.00 in0.0 mm 0.00 in/hr0.0 mm/hr 0.00 in0.0 mm
01:40 AM 51.5°F10.8°C 49.3°F9.6°C 92% 3.5 mph WNW5.6 kmh WNW 6.9 mph11.1 kmh 29.96 in1014.6 mb 0.00 in0.0 mm 0.00 in/hr0.0 mm/hr 0.00 in0.0 mm
01:30 AM 51.5°F10.8°C 49.3°F9.6°C 92% 4.6 mph WSW7.4 kmh WSW 8.1 mph13.0 kmh 29.96 in1014.6 mb 0.00 in0.0 mm 0.00 in/hr0.0 mm/hr 0.00 in0.0 mm
01:20 AM 51.4°F10.8°C 49.2°F9.6°C 92% 5.8 mph WSW9.3 kmh WSW 9.2 mph14.8 kmh 29.96 in1014.6 mb 0.00 in0.0 mm 0.00 in/hr0.0 mm/hr 0.00 in0.0 mm
01:10 AM 51.2°F10.7°C 49.0°F9.4°C 92% 3.5 mph W5.6 kmh W 6.9 mph11.1 kmh 29.95 in1014.2 mb 0.00 in0.0 mm 0.00 in/hr0.0 mm/hr 0.00 in0.0 mm
01:00 AM 51.2°F10.7°C 49.0°F9.4°C 92% 3.5 mph WSW5.6 kmh WSW 5.8 mph9.3 kmh 29.96 in1014.6 mb 0.00 in0.0 mm 0.00 in/hr0.0 mm/hr 0.00 in0.0 mm
12:50 AM 51.4°F10.8°C 48.9°F9.4°C 91% 2.3 mph S3.7 kmh S 4.6 mph7.4 kmh 29.96 in1014.6 mb 0.00 in0.0 mm 0.00 in/hr0.0 mm/hr 0.00 in0.0 mm
12:40 AM 51.8°F11.0°C 49.3°F9.6°C 91% 3.5 mph WSW5.6 kmh WSW 5.8 mph9.3 kmh 29.96 in1014.6 mb 0.00 in0.0 mm 0.00 in/hr0.0 mm/hr 0.00 in0.0 mm
12:30 AM 52.2°F11.2°C 49.7°F9.8°C 91% 3.5 mph NW5.6 kmh NW 5.8 mph9.3 kmh 29.96 in1014.6 mb 0.00 in0.0 mm 0.00 in/hr0.0 mm/hr 0.00 in0.0 mm
12:20 AM 52.4°F11.3°C 49.8°F9.9°C 91% 3.5 mph 5.6 kmh 6.9 mph11.1 kmh 29.96 in1014.6 mb 0.00 in0.0 mm 0.00 in/hr0.0 mm/hr 0.00 in0.0 mm
12:10 AM 52.5°F11.4°C 49.7°F9.8°C 90% 5.8 mph WSW9.3 kmh WSW 8.1 mph13.0 kmh 29.96 in1014.6 mb 0.00 in0.0 mm 0.00 in/hr0.0 mm/hr 0.00 in0.0 mm
12:00 AM 52.6°F11.4°C 49.8°F9.9°C 90% 5.8 mph N9.3 kmh N 8.1 mph13.0 kmh 29.96 in1014.6 mb 0.00 in0.0 mm 0.00 in/hr0.0 mm/hr 0.00 in0.0 mm